Gambo, Canada
Current Conditions -  °F | °C
As of 11:00 AM on Monday 22 Dec 2014 (Local Time) from CYQX Reporting Station
Overcast Overcast  
Wind Chill: 19°   Ceiling: 1300
Heat Index: 25°   Visibility: 20mi
Dew Point: 21°   Wind: 5mph
Humidity: 86%   Direction: 350°N
Pressure: 30.41"   Gusts: NA
Location:  48.79°N, 54.21°W
Report Text: CYQX 221400Z 35004KT 340V050 20SM OVC013 M04/M06 A3041 RMK SC8 SLP309
Loading
Personal Weather Stations






























Interactive Weather Map New forecast layout! Learn more

10-Day Weather Forecast

Advertisements
Track Severe Weather on mobile